In Rescue
 
Open Full Screen Window  High Contrast Mode
Wind Gusting 00 knots
03
May 25, 2022 11:02 PM EDT
Present Weather: Mist
Weather Information
Wind Direction
  060 °
Wind Speed
  03 kt (3 mph)
Wind Gust
  00 kt (0 mph)
Altimeter
29.92 in
Visibility
3 SM
Temperature
14° C
57° F
Dewpoint
13° C
55° F
Humidity
94%
1hr Rain Fall
00.05 in.
24hr Rain Fall
00.48 in.
Sky Condition
Overcast @ 400 ft
LIFR

METAR KY31 260302Z AUTO 06003KT 3SM BR OVC004 14/13 A2992 RMK AO2 T01410130 P0005

FAA Disclaimer: The data displayed is for advisory purposes only and is not to be used for flight planning or operations.